sensor_id;sensor_type;location;lat;lon;timestamp;pressure;altitude;pressure_sealevel;temperature
56286;BMP180;42191;47.562;9.686;2023-07-20T00:02:01;96755.00;;;27.00
56286;BMP180;42191;47.562;9.686;2023-07-20T00:04:28;96748.00;;;27.00
56286;BMP180;42191;47.562;9.686;2023-07-20T00:06:54;96755.00;;;26.90
56286;BMP180;42191;47.562;9.686;2023-07-20T00:09:20;96766.00;;;26.90
56286;BMP180;42191;47.562;9.686;2023-07-20T00:11:52;96761.00;;;26.90
56286;BMP180;42191;47.562;9.686;2023-07-20T00:14:18;96751.00;;;26.90
56286;BMP180;42191;47.562;9.686;2023-07-20T00:16:49;96754.00;;;26.80
56286;BMP180;42191;47.562;9.686;2023-07-20T00:19:25;96757.00;;;26.80
56286;BMP180;42191;47.562;9.686;2023-07-20T00:21:52;96762.00;;;26.80
56286;BMP180;42191;47.562;9.686;2023-07-20T00:24:18;96753.00;;;26.70
56286;BMP180;42191;47.562;9.686;2023-07-20T00:26:45;96754.00;;;26.70
56286;BMP180;42191;47.562;9.686;2023-07-20T00:29:11;96750.00;;;26.70
56286;BMP180;42191;47.562;9.686;2023-07-20T00:31:37;96752.00;;;26.70
56286;BMP180;42191;47.562;9.686;2023-07-20T00:34:04;96750.00;;;26.70
56286;BMP180;42191;47.562;9.686;2023-07-20T00:36:30;96757.00;;;26.60
56286;BMP180;42191;47.562;9.686;2023-07-20T00:38:56;96763.00;;;26.60
56286;BMP180;42191;47.562;9.686;2023-07-20T00:41:23;96763.00;;;26.60
56286;BMP180;42191;47.562;9.686;2023-07-20T00:43:49;96749.00;;;26.60
56286;BMP180;42191;47.562;9.686;2023-07-20T00:46:16;96755.00;;;26.60
56286;BMP180;42191;47.562;9.686;2023-07-20T00:48:43;96764.00;;;26.50
56286;BMP180;42191;47.562;9.686;2023-07-20T00:51:09;96755.00;;;26.50
56286;BMP180;42191;47.562;9.686;2023-07-20T00:53:36;96750.00;;;26.50
56286;BMP180;42191;47.562;9.686;2023-07-20T00:56:03;96756.00;;;26.50
56286;BMP180;42191;47.562;9.686;2023-07-20T00:58:29;96758.00;;;26.40
56286;BMP180;42191;47.562;9.686;2023-07-20T01:00:55;96751.00;;;26.40
56286;BMP180;42191;47.562;9.686;2023-07-20T01:03:22;96748.00;;;26.30
56286;BMP180;42191;47.562;9.686;2023-07-20T01:05:59;96753.00;;;26.30
56286;BMP180;42191;47.562;9.686;2023-07-20T01:11:04;96748.00;;;26.10
56286;BMP180;42191;47.562;9.686;2023-07-20T01:13:33;96747.00;;;26.10
56286;BMP180;42191;47.562;9.686;2023-07-20T01:16:02;96741.00;;;26.00
56286;BMP180;42191;47.562;9.686;2023-07-20T01:18:28;96748.00;;;26.00
56286;BMP180;42191;47.562;9.686;2023-07-20T01:21:09;96753.00;;;26.00
56286;BMP180;42191;47.562;9.686;2023-07-20T01:26:21;96757.00;;;26.00
56286;BMP180;42191;47.562;9.686;2023-07-20T01:31:49;96750.00;;;25.90
56286;BMP180;42191;47.562;9.686;2023-07-20T01:34:19;96754.00;;;25.90
56286;BMP180;42191;47.562;9.686;2023-07-20T01:36:46;96761.00;;;25.90
56286;BMP180;42191;47.562;9.686;2023-07-20T01:39:14;96760.00;;;25.90
56286;BMP180;42191;47.562;9.686;2023-07-20T01:41:41;96764.00;;;25.90
56286;BMP180;42191;47.562;9.686;2023-07-20T01:44:09;96759.00;;;25.90
56286;BMP180;42191;47.562;9.686;2023-07-20T01:46:35;96758.00;;;25.90
56286;BMP180;42191;47.562;9.686;2023-07-20T01:49:01;96757.00;;;25.90
56286;BMP180;42191;47.562;9.686;2023-07-20T01:51:27;96744.00;;;25.90
56286;BMP180;42191;47.562;9.686;2023-07-20T01:53:53;96745.00;;;25.90
56286;BMP180;42191;47.562;9.686;2023-07-20T01:56:19;96755.00;;;25.90
56286;BMP180;42191;47.562;9.686;2023-07-20T01:58:46;96754.00;;;25.90
56286;BMP180;42191;47.562;9.686;2023-07-20T02:01:12;96760.00;;;25.90
56286;BMP180;42191;47.562;9.686;2023-07-20T02:03:38;96762.00;;;25.90
56286;BMP180;42191;47.562;9.686;2023-07-20T02:06:04;96747.00;;;25.90
56286;BMP180;42191;47.562;9.686;2023-07-20T02:08:30;96743.00;;;25.80
56286;BMP180;42191;47.562;9.686;2023-07-20T02:10:57;96746.00;;;25.80
56286;BMP180;42191;47.562;9.686;2023-07-20T02:13:23;96760.00;;;25.80
56286;BMP180;42191;47.562;9.686;2023-07-20T02:15:49;96760.00;;;25.80
56286;BMP180;42191;47.562;9.686;2023-07-20T02:18:16;96764.00;;;25.70
56286;BMP180;42191;47.562;9.686;2023-07-20T02:20:43;96754.00;;;25.70
56286;BMP180;42191;47.562;9.686;2023-07-20T02:23:09;96755.00;;;25.70
56286;BMP180;42191;47.562;9.686;2023-07-20T02:25:35;96763.00;;;25.70
56286;BMP180;42191;47.562;9.686;2023-07-20T02:28:01;96761.00;;;25.60
56286;BMP180;42191;47.562;9.686;2023-07-20T02:30:27;96761.00;;;25.60
56286;BMP180;42191;47.562;9.686;2023-07-20T02:32:54;96760.00;;;25.60
56286;BMP180;42191;47.562;9.686;2023-07-20T02:35:20;96764.00;;;25.60
56286;BMP180;42191;47.562;9.686;2023-07-20T02:37:46;96772.00;;;25.60
56286;BMP180;42191;47.562;9.686;2023-07-20T02:40:12;96766.00;;;25.50
56286;BMP180;42191;47.562;9.686;2023-07-20T02:42:38;96768.00;;;25.50
56286;BMP180;42191;47.562;9.686;2023-07-20T02:45:05;96766.00;;;25.50
56286;BMP180;42191;47.562;9.686;2023-07-20T02:47:31;96761.00;;;25.50
56286;BMP180;42191;47.562;9.686;2023-07-20T02:49:58;96766.00;;;25.50
56286;BMP180;42191;47.562;9.686;2023-07-20T02:52:24;96766.00;;;25.40
56286;BMP180;42191;47.562;9.686;2023-07-20T02:54:50;96787.00;;;25.40
56286;BMP180;42191;47.562;9.686;2023-07-20T02:57:16;96776.00;;;25.40
56286;BMP180;42191;47.562;9.686;2023-07-20T02:59:42;96759.00;;;25.30
56286;BMP180;42191;47.562;9.686;2023-07-20T03:02:08;96772.00;;;25.30
56286;BMP180;42191;47.562;9.686;2023-07-20T03:04:37;96774.00;;;25.30
56286;BMP180;42191;47.562;9.686;2023-07-20T03:07:07;96779.00;;;25.20
56286;BMP180;42191;47.562;9.686;2023-07-20T03:09:33;96781.00;;;25.20
56286;BMP180;42191;47.562;9.686;2023-07-20T03:11:59;96786.00;;;25.20
56286;BMP180;42191;47.562;9.686;2023-07-20T03:14:26;96791.00;;;25.10
56286;BMP180;42191;47.562;9.686;2023-07-20T03:16:52;96801.00;;;25.10
56286;BMP180;42191;47.562;9.686;2023-07-20T03:19:18;96794.00;;;25.10
56286;BMP180;42191;47.562;9.686;2023-07-20T03:21:44;96794.00;;;25.10
56286;BMP180;42191;47.562;9.686;2023-07-20T03:24:10;96794.00;;;25.10
56286;BMP180;42191;47.562;9.686;2023-07-20T03:26:37;96801.00;;;25.00
56286;BMP180;42191;47.562;9.686;2023-07-20T03:29:03;96796.00;;;25.00
56286;BMP180;42191;47.562;9.686;2023-07-20T03:31:30;96791.00;;;25.00
56286;BMP180;42191;47.562;9.686;2023-07-20T03:33:56;96807.00;;;25.00
56286;BMP180;42191;47.562;9.686;2023-07-20T03:36:22;96794.00;;;25.00
56286;BMP180;42191;47.562;9.686;2023-07-20T03:38:48;96797.00;;;25.00
56286;BMP180;42191;47.562;9.686;2023-07-20T03:41:16;96804.00;;;25.00
56286;BMP180;42191;47.562;9.686;2023-07-20T03:43:42;96809.00;;;24.90
56286;BMP180;42191;47.562;9.686;2023-07-20T03:46:08;96813.00;;;24.90
56286;BMP180;42191;47.562;9.686;2023-07-20T03:48:35;96805.00;;;24.90
56286;BMP180;42191;47.562;9.686;2023-07-20T03:51:01;96806.00;;;24.80
56286;BMP180;42191;47.562;9.686;2023-07-20T03:53:28;96811.00;;;24.80
56286;BMP180;42191;47.562;9.686;2023-07-20T03:55:54;96804.00;;;24.80
56286;BMP180;42191;47.562;9.686;2023-07-20T03:58:21;96797.00;;;24.70
56286;BMP180;42191;47.562;9.686;2023-07-20T04:00:49;96807.00;;;24.70
56286;BMP180;42191;47.562;9.686;2023-07-20T04:03:17;96805.00;;;24.70
56286;BMP180;42191;47.562;9.686;2023-07-20T04:05:44;96797.00;;;24.70
56286;BMP180;42191;47.562;9.686;2023-07-20T04:08:10;96796.00;;;24.60
56286;BMP180;42191;47.562;9.686;2023-07-20T04:10:37;96801.00;;;24.60
56286;BMP180;42191;47.562;9.686;2023-07-20T04:13:04;96810.00;;;24.60
56286;BMP180;42191;47.562;9.686;2023-07-20T04:15:31;96826.00;;;24.60
56286;BMP180;42191;47.562;9.686;2023-07-20T04:17:57;96834.00;;;24.60
56286;BMP180;42191;47.562;9.686;2023-07-20T04:20:24;96828.00;;;24.50
56286;BMP180;42191;47.562;9.686;2023-07-20T04:22:50;96827.00;;;24.50
56286;BMP180;42191;47.562;9.686;2023-07-20T04:25:19;96827.00;;;24.40
56286;BMP180;42191;47.562;9.686;2023-07-20T04:27:46;96823.00;;;24.40
56286;BMP180;42191;47.562;9.686;2023-07-20T04:30:12;96827.00;;;24.30
56286;BMP180;42191;47.562;9.686;2023-07-20T04:32:39;96834.00;;;24.30
56286;BMP180;42191;47.562;9.686;2023-07-20T04:35:10;96832.00;;;24.30
56286;BMP180;42191;47.562;9.686;2023-07-20T04:37:36;96819.00;;;24.30
56286;BMP180;42191;47.562;9.686;2023-07-20T04:40:02;96814.00;;;24.20
56286;BMP180;42191;47.562;9.686;2023-07-20T04:42:29;96826.00;;;24.20
56286;BMP180;42191;47.562;9.686;2023-07-20T04:44:55;96826.00;;;24.20
56286;BMP180;42191;47.562;9.686;2023-07-20T04:47:21;96832.00;;;24.20
56286;BMP180;42191;47.562;9.686;2023-07-20T04:49:48;96842.00;;;24.20
56286;BMP180;42191;47.562;9.686;2023-07-20T04:52:14;96842.00;;;24.20
56286;BMP180;42191;47.562;9.686;2023-07-20T04:54:40;96846.00;;;24.10
56286;BMP180;42191;47.562;9.686;2023-07-20T04:57:12;96858.00;;;24.10
56286;BMP180;42191;47.562;9.686;2023-07-20T04:59:39;96855.00;;;24.10
56286;BMP180;42191;47.562;9.686;2023-07-20T05:02:05;96839.00;;;24.10
56286;BMP180;42191;47.562;9.686;2023-07-20T05:04:31;96840.00;;;24.00
56286;BMP180;42191;47.562;9.686;2023-07-20T05:06:57;96844.00;;;24.00
56286;BMP180;42191;47.562;9.686;2023-07-20T05:09:23;96854.00;;;24.00
56286;BMP180;42191;47.562;9.686;2023-07-20T05:11:49;96851.00;;;24.00
56286;BMP180;42191;47.562;9.686;2023-07-20T05:14:16;96860.00;;;24.10
56286;BMP180;42191;47.562;9.686;2023-07-20T05:16:42;96850.00;;;24.10
56286;BMP180;42191;47.562;9.686;2023-07-20T05:19:08;96853.00;;;24.20
56286;BMP180;42191;47.562;9.686;2023-07-20T05:21:34;96849.00;;;24.20
56286;BMP180;42191;47.562;9.686;2023-07-20T05:24:00;96837.00;;;24.20
56286;BMP180;42191;47.562;9.686;2023-07-20T05:26:26;96843.00;;;24.30
56286;BMP180;42191;47.562;9.686;2023-07-20T05:28:52;96844.00;;;24.30
56286;BMP180;42191;47.562;9.686;2023-07-20T05:31:19;96845.00;;;24.30
56286;BMP180;42191;47.562;9.686;2023-07-20T05:33:45;96840.00;;;24.30
56286;BMP180;42191;47.562;9.686;2023-07-20T05:36:11;96836.00;;;24.20
56286;BMP180;42191;47.562;9.686;2023-07-20T05:38:37;96837.00;;;24.20
56286;BMP180;42191;47.562;9.686;2023-07-20T05:41:04;96834.00;;;24.30
56286;BMP180;42191;47.562;9.686;2023-07-20T05:43:30;96846.00;;;24.30
56286;BMP180;42191;47.562;9.686;2023-07-20T05:45:57;96841.00;;;24.30
56286;BMP180;42191;47.562;9.686;2023-07-20T05:48:24;96843.00;;;24.40
56286;BMP180;42191;47.562;9.686;2023-07-20T05:50:50;96844.00;;;24.40
56286;BMP180;42191;47.562;9.686;2023-07-20T05:53:17;96847.00;;;24.50
56286;BMP180;42191;47.562;9.686;2023-07-20T05:55:43;96850.00;;;24.50
56286;BMP180;42191;47.562;9.686;2023-07-20T05:58:09;96839.00;;;24.50
56286;BMP180;42191;47.562;9.686;2023-07-20T06:00:35;96836.00;;;24.50
56286;BMP180;42191;47.562;9.686;2023-07-20T06:03:01;96838.00;;;24.60
56286;BMP180;42191;47.562;9.686;2023-07-20T06:05:27;96840.00;;;24.60
56286;BMP180;42191;47.562;9.686;2023-07-20T06:07:53;96832.00;;;24.70
56286;BMP180;42191;47.562;9.686;2023-07-20T06:10:20;96839.00;;;24.70
56286;BMP180;42191;47.562;9.686;2023-07-20T06:12:46;96848.00;;;24.80
56286;BMP180;42191;47.562;9.686;2023-07-20T06:15:33;96847.00;;;24.90
56286;BMP180;42191;47.562;9.686;2023-07-20T06:18:01;96835.00;;;25.00
56286;BMP180;42191;47.562;9.686;2023-07-20T06:20:27;96837.00;;;25.10
56286;BMP180;42191;47.562;9.686;2023-07-20T06:22:53;96831.00;;;25.20
56286;BMP180;42191;47.562;9.686;2023-07-20T06:25:20;96821.00;;;25.40
56286;BMP180;42191;47.562;9.686;2023-07-20T06:27:48;96829.00;;;25.50
56286;BMP180;42191;47.562;9.686;2023-07-20T06:30:15;96848.00;;;25.60
56286;BMP180;42191;47.562;9.686;2023-07-20T06:32:41;96852.00;;;25.60
56286;BMP180;42191;47.562;9.686;2023-07-20T06:35:08;96844.00;;;25.70
56286;BMP180;42191;47.562;9.686;2023-07-20T06:37:34;96832.00;;;25.80
56286;BMP180;42191;47.562;9.686;2023-07-20T06:40:04;96843.00;;;25.90
56286;BMP180;42191;47.562;9.686;2023-07-20T06:42:31;96842.00;;;26.00
56286;BMP180;42191;47.562;9.686;2023-07-20T06:44:57;96843.00;;;26.00
56286;BMP180;42191;47.562;9.686;2023-07-20T06:47:24;96845.00;;;26.00
56286;BMP180;42191;47.562;9.686;2023-07-20T06:49:51;96847.00;;;26.10
56286;BMP180;42191;47.562;9.686;2023-07-20T06:52:17;96847.00;;;26.10
56286;BMP180;42191;47.562;9.686;2023-07-20T06:54:43;96846.00;;;26.10
56286;BMP180;42191;47.562;9.686;2023-07-20T06:57:09;96851.00;;;26.10
56286;BMP180;42191;47.562;9.686;2023-07-20T06:59:35;96841.00;;;26.10
56286;BMP180;42191;47.562;9.686;2023-07-20T07:02:01;96843.00;;;26.10
56286;BMP180;42191;47.562;9.686;2023-07-20T07:04:28;96843.00;;;26.10
56286;BMP180;42191;47.562;9.686;2023-07-20T07:06:54;96842.00;;;26.10
56286;BMP180;42191;47.562;9.686;2023-07-20T07:09:20;96832.00;;;26.10
56286;BMP180;42191;47.562;9.686;2023-07-20T07:11:46;96835.00;;;26.10
56286;BMP180;42191;47.562;9.686;2023-07-20T07:14:13;96822.00;;;26.10
56286;BMP180;42191;47.562;9.686;2023-07-20T07:16:39;96825.00;;;26.20
56286;BMP180;42191;47.562;9.686;2023-07-20T07:19:05;96822.00;;;26.20
56286;BMP180;42191;47.562;9.686;2023-07-20T07:21:33;96834.00;;;26.30
56286;BMP180;42191;47.562;9.686;2023-07-20T07:23:59;96832.00;;;26.40
56286;BMP180;42191;47.562;9.686;2023-07-20T07:26:26;96836.00;;;26.50
56286;BMP180;42191;47.562;9.686;2023-07-20T07:28:52;96835.00;;;26.70
56286;BMP180;42191;47.562;9.686;2023-07-20T07:31:18;96841.00;;;26.80
56286;BMP180;42191;47.562;9.686;2023-07-20T07:33:44;96833.00;;;27.00
56286;BMP180;42191;47.562;9.686;2023-07-20T07:36:10;96839.00;;;27.20
56286;BMP180;42191;47.562;9.686;2023-07-20T07:38:36;96835.00;;;27.30
56286;BMP180;42191;47.562;9.686;2023-07-20T07:41:04;96833.00;;;27.40
56286;BMP180;42191;47.562;9.686;2023-07-20T07:43:30;96834.00;;;27.60
56286;BMP180;42191;47.562;9.686;2023-07-20T07:45:56;96830.00;;;27.70
56286;BMP180;42191;47.562;9.686;2023-07-20T07:48:23;96834.00;;;27.70
56286;BMP180;42191;47.562;9.686;2023-07-20T07:50:51;96835.00;;;27.80
56286;BMP180;42191;47.562;9.686;2023-07-20T07:53:17;96833.00;;;27.90
56286;BMP180;42191;47.562;9.686;2023-07-20T07:55:44;96829.00;;;27.90
56286;BMP180;42191;47.562;9.686;2023-07-20T07:58:10;96834.00;;;27.90
56286;BMP180;42191;47.562;9.686;2023-07-20T08:00:36;96831.00;;;27.90
56286;BMP180;42191;47.562;9.686;2023-07-20T08:03:02;96840.00;;;27.90
56286;BMP180;42191;47.562;9.686;2023-07-20T08:05:28;96828.00;;;27.90
56286;BMP180;42191;47.562;9.686;2023-07-20T08:07:55;96830.00;;;28.00
56286;BMP180;42191;47.562;9.686;2023-07-20T08:10:21;96824.00;;;28.10
56286;BMP180;42191;47.562;9.686;2023-07-20T08:12:47;96835.00;;;28.20
56286;BMP180;42191;47.562;9.686;2023-07-20T08:15:14;96827.00;;;28.40
56286;BMP180;42191;47.562;9.686;2023-07-20T08:17:41;96830.00;;;28.50
56286;BMP180;42191;47.562;9.686;2023-07-20T08:20:09;96818.00;;;28.60
56286;BMP180;42191;47.562;9.686;2023-07-20T08:22:38;96826.00;;;28.80
56286;BMP180;42191;47.562;9.686;2023-07-20T08:25:06;96828.00;;;28.90
56286;BMP180;42191;47.562;9.686;2023-07-20T08:27:32;96828.00;;;29.00
56286;BMP180;42191;47.562;9.686;2023-07-20T08:29:58;96829.00;;;29.20
56286;BMP180;42191;47.562;9.686;2023-07-20T08:32:26;96828.00;;;29.30
56286;BMP180;42191;47.562;9.686;2023-07-20T08:34:52;96830.00;;;29.40
56286;BMP180;42191;47.562;9.686;2023-07-20T08:37:18;96831.00;;;29.40
56286;BMP180;42191;47.562;9.686;2023-07-20T08:39:44;96834.00;;;29.30
56286;BMP180;42191;47.562;9.686;2023-07-20T08:42:11;96825.00;;;29.20
56286;BMP180;42191;47.562;9.686;2023-07-20T08:44:42;96835.00;;;29.10
56286;BMP180;42191;47.562;9.686;2023-07-20T08:47:09;96835.00;;;29.00
56286;BMP180;42191;47.562;9.686;2023-07-20T08:49:36;96840.00;;;28.90
56286;BMP180;42191;47.562;9.686;2023-07-20T08:52:04;96829.00;;;28.90
56286;BMP180;42191;47.562;9.686;2023-07-20T08:54:31;96828.00;;;28.80
56286;BMP180;42191;47.562;9.686;2023-07-20T08:57:00;96837.00;;;28.80
56286;BMP180;42191;47.562;9.686;2023-07-20T08:59:28;96825.00;;;28.80
56286;BMP180;42191;47.562;9.686;2023-07-20T09:01:59;96823.00;;;28.90
56286;BMP180;42191;47.562;9.686;2023-07-20T09:04:26;96820.00;;;29.00
56286;BMP180;42191;47.562;9.686;2023-07-20T09:06:52;96827.00;;;29.10
56286;BMP180;42191;47.562;9.686;2023-07-20T09:09:18;96826.00;;;29.10
56286;BMP180;42191;47.562;9.686;2023-07-20T09:11:49;96822.00;;;29.10
56286;BMP180;42191;47.562;9.686;2023-07-20T09:14:16;96820.00;;;29.10
56286;BMP180;42191;47.562;9.686;2023-07-20T09:16:49;96815.00;;;29.00
56286;BMP180;42191;47.562;9.686;2023-07-20T09:19:19;96817.00;;;28.90
56286;BMP180;42191;47.562;9.686;2023-07-20T09:21:48;96816.00;;;28.80
56286;BMP180;42191;47.562;9.686;2023-07-20T09:24:14;96807.00;;;28.80
56286;BMP180;42191;47.562;9.686;2023-07-20T09:26:43;96810.00;;;28.70
56286;BMP180;42191;47.562;9.686;2023-07-20T09:29:10;96796.00;;;28.70
56286;BMP180;42191;47.562;9.686;2023-07-20T09:31:37;96799.00;;;28.70
56286;BMP180;42191;47.562;9.686;2023-07-20T09:34:05;96803.00;;;28.70
56286;BMP180;42191;47.562;9.686;2023-07-20T09:36:34;96799.00;;;28.70
56286;BMP180;42191;47.562;9.686;2023-07-20T09:39:01;96801.00;;;28.70
56286;BMP180;42191;47.562;9.686;2023-07-20T09:41:28;96794.00;;;28.70
56286;BMP180;42191;47.562;9.686;2023-07-20T09:43:54;96795.00;;;28.70
56286;BMP180;42191;47.562;9.686;2023-07-20T09:46:22;96787.00;;;28.70
56286;BMP180;42191;47.562;9.686;2023-07-20T09:48:54;96788.00;;;28.70
56286;BMP180;42191;47.562;9.686;2023-07-20T09:51:24;96785.00;;;28.80
56286;BMP180;42191;47.562;9.686;2023-07-20T09:53:53;96789.00;;;28.80
56286;BMP180;42191;47.562;9.686;2023-07-20T09:56:22;96787.00;;;28.90
56286;BMP180;42191;47.562;9.686;2023-07-20T09:58:49;96792.00;;;28.90
56286;BMP180;42191;47.562;9.686;2023-07-20T10:01:20;96777.00;;;28.90
56286;BMP180;42191;47.562;9.686;2023-07-20T10:03:47;96782.00;;;28.90
56286;BMP180;42191;47.562;9.686;2023-07-20T10:06:20;96776.00;;;28.80
56286;BMP180;42191;47.562;9.686;2023-07-20T10:08:48;96777.00;;;28.70
56286;BMP180;42191;47.562;9.686;2023-07-20T10:11:16;96767.00;;;28.70
56286;BMP180;42191;47.562;9.686;2023-07-20T10:13:44;96765.00;;;28.70
56286;BMP180;42191;47.562;9.686;2023-07-20T10:16:19;96764.00;;;28.60
56286;BMP180;42191;47.562;9.686;2023-07-20T10:21:30;96757.00;;;28.50
56286;BMP180;42191;47.562;9.686;2023-07-20T10:23:57;96762.00;;;28.50
56286;BMP180;42191;47.562;9.686;2023-07-20T10:26:26;96767.00;;;28.50
56286;BMP180;42191;47.562;9.686;2023-07-20T10:28:52;96765.00;;;28.50
56286;BMP180;42191;47.562;9.686;2023-07-20T10:31:19;96758.00;;;28.60
56286;BMP180;42191;47.562;9.686;2023-07-20T10:33:45;96762.00;;;28.50
56286;BMP180;42191;47.562;9.686;2023-07-20T10:36:12;96759.00;;;28.50
56286;BMP180;42191;47.562;9.686;2023-07-20T10:38:58;96753.00;;;28.50
56286;BMP180;42191;47.562;9.686;2023-07-20T10:41:34;96753.00;;;28.50
56286;BMP180;42191;47.562;9.686;2023-07-20T10:44:10;96750.00;;;28.50
56286;BMP180;42191;47.562;9.686;2023-07-20T10:49:08;96751.00;;;28.50
56286;BMP180;42191;47.562;9.686;2023-07-20T10:51:45;96734.00;;;28.50
56286;BMP180;42191;47.562;9.686;2023-07-20T10:56:48;96739.00;;;28.50
56286;BMP180;42191;47.562;9.686;2023-07-20T10:59:35;96742.00;;;28.50
56286;BMP180;42191;47.562;9.686;2023-07-20T11:02:06;96733.00;;;28.50
56286;BMP180;42191;47.562;9.686;2023-07-20T11:04:42;96731.00;;;28.60
56286;BMP180;42191;47.562;9.686;2023-07-20T11:07:09;96739.00;;;28.60
56286;BMP180;42191;47.562;9.686;2023-07-20T11:09:37;96726.00;;;28.60
56286;BMP180;42191;47.562;9.686;2023-07-20T11:12:14;96728.00;;;28.60
56286;BMP180;42191;47.562;9.686;2023-07-20T11:14:41;96726.00;;;28.60
56286;BMP180;42191;47.562;9.686;2023-07-20T11:17:12;96718.00;;;28.70
56286;BMP180;42191;47.562;9.686;2023-07-20T11:19:39;96717.00;;;28.70
56286;BMP180;42191;47.562;9.686;2023-07-20T11:22:08;96710.00;;;28.80
56286;BMP180;42191;47.562;9.686;2023-07-20T11:24:39;96709.00;;;28.80
56286;BMP180;42191;47.562;9.686;2023-07-20T11:27:05;96706.00;;;28.90
56286;BMP180;42191;47.562;9.686;2023-07-20T11:29:32;96706.00;;;28.90
56286;BMP180;42191;47.562;9.686;2023-07-20T11:31:58;96701.00;;;29.00
56286;BMP180;42191;47.562;9.686;2023-07-20T11:34:29;96695.00;;;29.00
56286;BMP180;42191;47.562;9.686;2023-07-20T11:36:55;96700.00;;;29.10
56286;BMP180;42191;47.562;9.686;2023-07-20T11:39:23;96688.00;;;29.10
56286;BMP180;42191;47.562;9.686;2023-07-20T11:41:52;96692.00;;;29.10
56286;BMP180;42191;47.562;9.686;2023-07-20T11:44:20;96692.00;;;29.10
56286;BMP180;42191;47.562;9.686;2023-07-20T11:47:04;96688.00;;;29.10
56286;BMP180;42191;47.562;9.686;2023-07-20T11:49:34;96694.00;;;29.20
56286;BMP180;42191;47.562;9.686;2023-07-20T11:52:00;96687.00;;;29.20
56286;BMP180;42191;47.562;9.686;2023-07-20T11:54:27;96684.00;;;29.20
56286;BMP180;42191;47.562;9.686;2023-07-20T11:56:54;96681.00;;;29.20
56286;BMP180;42191;47.562;9.686;2023-07-20T11:59:23;96669.00;;;29.20
56286;BMP180;42191;47.562;9.686;2023-07-20T12:01:50;96678.00;;;29.20
56286;BMP180;42191;47.562;9.686;2023-07-20T12:04:16;96675.00;;;29.20
56286;BMP180;42191;47.562;9.686;2023-07-20T12:06:42;96667.00;;;29.20
56286;BMP180;42191;47.562;9.686;2023-07-20T12:09:14;96668.00;;;29.20
56286;BMP180;42191;47.562;9.686;2023-07-20T12:11:43;96660.00;;;29.30
56286;BMP180;42191;47.562;9.686;2023-07-20T12:14:13;96658.00;;;29.30
56286;BMP180;42191;47.562;9.686;2023-07-20T12:16:39;96648.00;;;29.40
56286;BMP180;42191;47.562;9.686;2023-07-20T12:19:06;96648.00;;;29.40
56286;BMP180;42191;47.562;9.686;2023-07-20T12:21:35;96654.00;;;29.40
56286;BMP180;42191;47.562;9.686;2023-07-20T12:24:03;96645.00;;;29.40
56286;BMP180;42191;47.562;9.686;2023-07-20T12:26:31;96649.00;;;29.50
56286;BMP180;42191;47.562;9.686;2023-07-20T12:28:57;96634.00;;;29.50
56286;BMP180;42191;47.562;9.686;2023-07-20T12:31:24;96632.00;;;29.50
56286;BMP180;42191;47.562;9.686;2023-07-20T12:33:51;96634.00;;;29.50
56286;BMP180;42191;47.562;9.686;2023-07-20T12:36:18;96631.00;;;29.50
56286;BMP180;42191;47.562;9.686;2023-07-20T12:38:44;96627.00;;;29.60
56286;BMP180;42191;47.562;9.686;2023-07-20T12:41:11;96623.00;;;29.60
56286;BMP180;42191;47.562;9.686;2023-07-20T12:43:44;96629.00;;;29.70
56286;BMP180;42191;47.562;9.686;2023-07-20T12:46:12;96624.00;;;29.70
56286;BMP180;42191;47.562;9.686;2023-07-20T12:48:39;96625.00;;;29.80
56286;BMP180;42191;47.562;9.686;2023-07-20T12:51:09;96619.00;;;29.80
56286;BMP180;42191;47.562;9.686;2023-07-20T12:53:36;96627.00;;;29.80
56286;BMP180;42191;47.562;9.686;2023-07-20T12:56:02;96620.00;;;29.90
56286;BMP180;42191;47.562;9.686;2023-07-20T12:58:29;96621.00;;;29.90
56286;BMP180;42191;47.562;9.686;2023-07-20T13:00:55;96610.00;;;29.90
56286;BMP180;42191;47.562;9.686;2023-07-20T13:03:21;96611.00;;;29.90
56286;BMP180;42191;47.562;9.686;2023-07-20T13:05:48;96612.00;;;30.00
56286;BMP180;42191;47.562;9.686;2023-07-20T13:08:15;96619.00;;;30.00
56286;BMP180;42191;47.562;9.686;2023-07-20T13:10:43;96612.00;;;30.10
56286;BMP180;42191;47.562;9.686;2023-07-20T13:13:09;96607.00;;;30.30
56286;BMP180;42191;47.562;9.686;2023-07-20T13:15:43;96600.00;;;30.60
56286;BMP180;42191;47.562;9.686;2023-07-20T13:18:09;96595.00;;;31.00
56286;BMP180;42191;47.562;9.686;2023-07-20T13:20:35;96605.00;;;31.50
56286;BMP180;42191;47.562;9.686;2023-07-20T13:23:02;96598.00;;;32.00
56286;BMP180;42191;47.562;9.686;2023-07-20T13:25:28;96591.00;;;32.50
56286;BMP180;42191;47.562;9.686;2023-07-20T13:27:54;96591.00;;;33.20
56286;BMP180;42191;47.562;9.686;2023-07-20T13:30:20;96592.00;;;33.90
56286;BMP180;42191;47.562;9.686;2023-07-20T13:32:47;96596.00;;;34.60
56286;BMP180;42191;47.562;9.686;2023-07-20T13:35:13;96575.00;;;35.20
56286;BMP180;42191;47.562;9.686;2023-07-20T13:37:41;96580.00;;;35.90
56286;BMP180;42191;47.562;9.686;2023-07-20T13:40:07;96584.00;;;36.40
56286;BMP180;42191;47.562;9.686;2023-07-20T13:42:39;96579.00;;;36.80
56286;BMP180;42191;47.562;9.686;2023-07-20T13:45:06;96586.00;;;37.00
56286;BMP180;42191;47.562;9.686;2023-07-20T13:47:33;96572.00;;;37.20
56286;BMP180;42191;47.562;9.686;2023-07-20T13:49:59;96560.00;;;37.40
56286;BMP180;42191;47.562;9.686;2023-07-20T13:52:25;96570.00;;;37.60
56286;BMP180;42191;47.562;9.686;2023-07-20T13:54:51;96569.00;;;37.80
56286;BMP180;42191;47.562;9.686;2023-07-20T13:57:17;96560.00;;;38.00
56286;BMP180;42191;47.562;9.686;2023-07-20T13:59:44;96564.00;;;38.10
56286;BMP180;42191;47.562;9.686;2023-07-20T14:02:11;96557.00;;;38.20
56286;BMP180;42191;47.562;9.686;2023-07-20T14:04:37;96560.00;;;38.30
56286;BMP180;42191;47.562;9.686;2023-07-20T14:07:03;96560.00;;;38.40
56286;BMP180;42191;47.562;9.686;2023-07-20T14:09:29;96558.00;;;38.60
56286;BMP180;42191;47.562;9.686;2023-07-20T14:11:55;96560.00;;;38.80
56286;BMP180;42191;47.562;9.686;2023-07-20T14:14:21;96559.00;;;39.00
56286;BMP180;42191;47.562;9.686;2023-07-20T14:16:47;96545.00;;;39.10
56286;BMP180;42191;47.562;9.686;2023-07-20T14:19:14;96554.00;;;39.30
56286;BMP180;42191;47.562;9.686;2023-07-20T14:21:40;96551.00;;;39.50
56286;BMP180;42191;47.562;9.686;2023-07-20T14:24:06;96554.00;;;39.70
56286;BMP180;42191;47.562;9.686;2023-07-20T14:26:32;96549.00;;;39.80